Time;durP1;ratioP1;P1;durP2;ratioP2;P2;SDS_P1;SDS_P2;PMS_P1;PMS_P2;Temp;Humidity;BMP_temperature;BMP_pressure;BME280_temperature;BME280_humidity;BME280_pressure;Samples;Min_cycle;Max_cycle;Signal;HPM_P1;HPM_P2
2022/06/01 00:01:28;;;;;;;8.28;7.17;;;;;;;25.74;56.98;101452.78;1676696;84;21558;-52
2022/06/01 00:03:54;;;;;;;8.28;6.70;;;;;;;25.68;57.40;101447.90;1671364;84;21052;-50
2022/06/01 00:06:21;;;;;;;7.87;6.70;;;;;;;25.68;57.40;101447.90;1664886;85;21075;-49
2022/06/01 00:08:48;;;;;;;8.75;7.00;;;;;;;25.63;57.54;101448.73;1704889;84;21026;-50
2022/06/01 00:11:16;;;;;;;8.25;6.47;;;;;;;25.63;57.45;101438.08;1659181;85;21101;-51
2022/06/01 00:13:42;;;;;;;8.08;6.53;;;;;;;25.61;57.87;101438.67;1705642;83;21071;-51
2022/06/01 00:16:09;;;;;;;10.23;6.95;;;;;;;25.57;57.78;101433.20;1682709;84;21032;-51
2022/06/01 00:18:36;;;;;;;12.18;6.72;;;;;;;25.54;57.93;101430.74;1681125;85;21072;-49
2022/06/01 00:21:04;;;;;;;7.22;6.53;;;;;;;25.53;57.93;101422.36;1687216;84;21080;-50
2022/06/01 00:23:31;;;;;;;7.78;6.40;;;;;;;25.51;57.86;101425.62;1671827;85;21068;-52
2022/06/01 00:25:58;;;;;;;9.55;6.62;;;;;;;25.52;57.79;101424.67;1680406;85;21011;-48
2022/06/01 00:28:26;;;;;;;7.03;6.30;;;;;;;25.50;57.67;101421.27;1681679;83;21029;-49
2022/06/01 00:30:53;;;;;;;8.03;6.35;;;;;;;25.50;57.67;101421.27;1686771;83;21456;-51
2022/06/01 00:33:19;;;;;;;7.20;5.92;;;;;;;25.51;57.62;101426.95;1665000;84;21726;-50
2022/06/01 00:35:46;;;;;;;6.95;5.92;;;;;;;25.46;57.36;101418.47;1693657;83;21060;-49
2022/06/01 00:38:16;;;;;;;8.03;6.90;;;;;;;25.46;57.36;101418.47;1665378;84;21069;-50
2022/06/01 00:40:43;;;;;;;9.68;6.10;;;;;;;25.46;57.48;101419.80;1679731;84;21055;-51
2022/06/01 00:43:39;;;;;;;6.97;6.12;;;;;;;25.43;57.67;101416.01;1686676;84;21071;-51
2022/06/01 00:46:06;;;;;;;7.25;5.72;;;;;;;25.41;57.75;101416.60;1620603;87;21081;-49
2022/06/01 00:48:32;;;;;;;6.25;5.70;;;;;;;25.38;57.67;101407.48;1625080;87;21061;-51
2022/06/01 00:51:00;;;;;;;6.40;5.80;;;;;;;25.37;57.49;101409.77;1601728;87;21057;-49
2022/06/01 00:53:29;;;;;;;6.55;5.95;;;;;;;25.36;57.35;101409.41;1623195;86;21114;-55
2022/06/01 00:56:05;;;;;;;6.50;5.87;;;;;;;25.35;57.26;101411.69;1612094;87;21065;-49
2022/06/01 00:58:38;;;;;;;9.13;6.55;;;;;;;25.34;57.05;101414.00;1616311;87;21073;-51
2022/06/01 01:01:08;;;;;;;7.65;6.33;;;;;;;25.33;57.10;101416.28;1594888;88;21110;-48
2022/06/01 01:03:36;;;;;;;8.10;7.07;;;;;;;25.31;57.21;101415.55;1634488;86;21446;-48
2022/06/01 01:06:23;;;;;;;9.83;7.12;;;;;;;25.30;57.57;101420.52;1629128;87;21045;-51
2022/06/01 01:08:51;;;;;;;8.00;7.20;;;;;;;25.30;57.73;101427.17;1632749;86;21545;-49
2022/06/01 01:11:24;;;;;;;10.28;6.50;;;;;;;25.29;57.74;101436.11;1632436;86;21076;-51
2022/06/01 01:13:50;;;;;;;10.00;6.53;;;;;;;25.28;57.69;101429.10;1561250;90;21101;-49
2022/06/01 01:16:20;;;;;;;7.10;6.40;;;;;;;25.28;57.70;101431.77;1549839;91;21580;-51
2022/06/01 01:18:46;;;;;;;9.08;6.78;;;;;;;25.28;57.69;101429.10;1557460;89;21036;-49
2022/06/01 01:21:33;;;;;;;9.60;5.95;;;;;;;25.24;57.92;101426.29;1568779;90;21720;-52
2022/06/01 01:24:22;;;;;;;6.65;5.97;;;;;;;25.30;57.76;101428.98;1574721;89;21105;-50
2022/06/01 01:26:50;;;;;;;7.90;5.90;;;;;;;25.31;57.49;101426.20;1569482;90;21108;-51
2022/06/01 01:29:36;;;;;;;7.70;6.60;;;;;;;25.29;57.54;101424.13;1563521;89;21093;-49
2022/06/01 01:32:05;;;;;;;7.03;6.33;;;;;;;25.28;57.42;101429.10;1560695;90;21068;-49
2022/06/01 01:34:35;;;;;;;6.78;6.08;;;;;;;25.25;57.23;101421.31;1576294;88;21030;-54
2022/06/01 01:37:07;;;;;;;7.10;5.85;;;;;;;25.24;57.28;101424.09;1589450;89;21179;-49
2022/06/01 01:39:35;;;;;;;8.48;7.30;;;;;;;25.22;57.31;101432.20;1580753;89;21077;-51
2022/06/01 01:42:03;;;;;;;8.68;6.35;;;;;;;25.21;57.30;101434.48;1565074;90;21159;-49
2022/06/01 01:44:46;;;;;;;7.22;5.65;;;;;;;25.17;57.14;101434.34;1556323;91;21077;-49
2022/06/01 01:47:14;;;;;;;6.17;5.60;;;;;;;25.20;57.05;101438.13;1537549;91;21720;-51
2022/06/01 01:49:41;;;;;;;6.45;5.85;;;;;;;25.16;56.99;101432.66;1566289;90;21135;-49
2022/06/01 01:52:13;;;;;;;6.87;6.20;;;;;;;25.13;56.97;101440.84;1563503;90;21084;-52
2022/06/01 01:55:06;;;;;;;7.95;5.47;;;;;;;25.11;56.98;101440.10;1589567;89;21094;-50
2022/06/01 01:58:14;;;;;;;5.92;5.40;;;;;;;25.10;57.08;101438.89;1543097;92;21119;-50
2022/06/01 02:00:48;;;;;;;6.17;5.55;;;;;;;25.07;57.06;101439.95;1533735;92;21140;-49
2022/06/01 02:03:36;;;;;;;6.22;5.50;;;;;;;25.04;57.03;101438.83;1544828;92;21093;-49
2022/06/01 02:06:30;;;;;;;7.22;5.72;;;;;;;25.03;57.12;101445.12;1528369;92;21640;-50
2022/06/01 02:09:05;;;;;;;7.87;5.72;;;;;;;25.00;57.14;101451.98;1541976;92;21076;-49
2022/06/01 02:14:46;;;;;;;6.15;5.45;;;;;;;24.99;57.30;101451.63;1537992;92;21144;-51
2022/06/01 02:17:17;;;;;;;7.42;6.00;;;;;;;25.01;57.36;101451.04;1542124;91;21082;-49
2022/06/01 02:19:55;;;;;;;6.62;5.80;;;;;;;25.05;57.24;101453.86;1516622;94;21071;-50
2022/06/01 02:22:23;;;;;;;6.78;5.92;;;;;;;25.02;57.36;101459.38;1507375;93;21125;-49
2022/06/01 02:24:50;;;;;;;6.87;6.17;;;;;;;24.96;57.57;101465.14;1528138;93;21607;-49
2022/06/01 02:27:16;;;;;;;7.03;5.92;;;;;;;24.97;57.48;101461.54;1530178;93;21120;-50
2022/06/01 02:29:50;;;;;;;6.75;5.97;;;;;;;25.00;57.29;101465.30;1513622;93;21169;-49
2022/06/01 02:32:17;;;;;;;10.32;6.20;;;;;;;24.96;57.28;101457.16;1536103;92;21087;-49
2022/06/01 02:34:45;;;;;;;6.65;6.03;;;;;;;24.89;57.31;101459.90;1543324;92;21064;-50
2022/06/01 02:37:14;;;;;;;7.15;6.00;;;;;;;24.84;57.45;101459.35;1523483;93;21196;-49
2022/06/01 02:39:45;;;;;;;6.47;5.87;;;;;;;24.81;57.58;101463.58;1517223;92;21646;-51
2022/06/01 02:42:25;;;;;;;6.83;6.22;;;;;;;24.82;57.57;101465.27;1512423;93;21126;-50
2022/06/01 02:45:07;;;;;;;8.03;6.50;;;;;;;24.82;57.52;101466.59;1524836;93;21105;-51
2022/06/01 02:47:38;;;;;;;6.90;6.03;;;;;;;24.81;57.58;101463.58;1509871;93;21556;-50
2022/06/01 02:50:08;;;;;;;7.87;5.90;;;;;;;24.81;57.53;101468.90;1520433;94;21133;-48
2022/06/01 02:52:36;;;;;;;7.85;6.15;;;;;;;24.82;57.42;101480.77;1597694;87;21078;-51
2022/06/01 02:55:05;;;;;;;8.90;7.10;;;;;;;24.82;57.42;101480.77;1605530;88;21098;-50
2022/06/01 02:57:33;;;;;;;8.35;6.60;;;;;;;24.83;57.37;101482.95;1605883;88;21075;-50
2022/06/01 03:00:02;;;;;;;6.80;6.08;;;;;;;24.83;57.42;101480.30;1595300;88;21089;-49
2022/06/01 03:02:29;;;;;;;6.80;6.20;;;;;;;24.83;57.51;101489.61;1605432;88;21090;-50
2022/06/01 03:04:55;;;;;;;7.10;6.47;;;;;;;24.82;57.30;101482.56;1605687;88;21074;-50
2022/06/01 03:07:22;;;;;;;7.12;6.42;;;;;;;24.83;57.39;101480.30;1605544;88;21117;-52
2022/06/01 03:09:49;;;;;;;7.05;6.15;;;;;;;24.83;57.31;101481.12;1605583;88;21125;-51
2022/06/01 03:12:15;;;;;;;8.23;6.45;;;;;;;24.83;57.38;101482.95;1605476;88;21118;-49
2022/06/01 03:14:42;;;;;;;6.62;5.92;;;;;;;24.82;57.47;101499.40;1605760;88;21570;-53
2022/06/01 03:17:09;;;;;;;6.62;5.90;;;;;;;24.83;57.20;101502.92;1605541;88;21604;-50
2022/06/01 03:19:36;;;;;;;8.58;6.70;;;;;;;24.83;57.15;101494.94;1670843;85;21498;-51
2022/06/01 03:22:04;;;;;;;8.03;6.78;;;;;;;24.84;57.14;101497.48;1703609;84;21628;-50
2022/06/01 03:24:32;;;;;;;9.00;6.45;;;;;;;24.87;57.03;101498.58;1694786;83;21069;-49
2022/06/01 03:26:58;;;;;;;6.87;6.22;;;;;;;24.89;57.08;101498.00;1666398;84;21029;-52
2022/06/01 03:29:25;;;;;;;8.68;6.60;;;;;;;24.93;56.99;101501.32;1674525;84;21071;-50
2022/06/01 03:31:53;;;;;;;7.65;6.92;;;;;;;24.98;56.83;101505.83;1673305;84;21088;-49
2022/06/01 03:34:19;;;;;;;6.90;6.30;;;;;;;25.00;56.75;101511.89;1694110;83;21052;-51
2022/06/01 03:36:46;;;;;;;7.15;6.37;;;;;;;25.09;56.73;101506.41;1690693;83;21112;-50
2022/06/01 03:39:14;;;;;;;6.60;6.00;;;;;;;25.20;56.38;101508.71;1708562;83;21059;-51
2022/06/01 03:41:41;;;;;;;6.58;6.08;;;;;;;25.62;55.27;101507.47;1651120;85;21574;-49
2022/06/01 03:47:05;;;;;;;7.22;6.25;;;;;;;25.83;54.74;101512.58;1676718;84;21075;-51
2022/06/01 03:52:00;;;;;;;6.37;5.78;;;;;;;26.21;54.06;101510.64;1561054;90;21067;-52
2022/06/01 03:54:27;;;;;;;6.37;5.78;;;;;;;26.46;53.18;101502.97;1563486;90;21067;-49
2022/06/01 03:56:53;;;;;;;6.72;6.03;;;;;;;26.69;52.45;101506.03;1558666;89;21061;-52
2022/06/01 03:59:20;;;;;;;6.80;6.10;;;;;;;26.86;51.79;101502.95;1565404;90;21130;-49
2022/06/01 04:01:47;;;;;;;6.90;6.30;;;;;;;26.94;51.29;101504.53;1573156;89;21067;-51
2022/06/01 04:04:14;;;;;;;6.55;6.03;;;;;;;26.95;51.15;101511.59;1550915;90;21657;-51
2022/06/01 04:06:40;;;;;;;8.63;6.03;;;;;;;26.89;51.27;101514.75;1560323;91;21650;-49
2022/06/01 04:09:07;;;;;;;6.53;6.00;;;;;;;26.78;51.28;101520.05;1590369;88;21152;-49
2022/06/01 04:11:34;;;;;;;6.50;5.90;;;;;;;26.62;51.48;101516.83;1594122;89;21070;-50
2022/06/01 04:14:02;;;;;;;8.20;6.33;;;;;;;26.48;51.79;101517.05;1584871;90;21078;-51
2022/06/01 04:16:29;;;;;;;7.00;6.25;;;;;;;26.33;52.11;101516.86;1565725;90;21248;-50
2022/06/01 04:18:56;;;;;;;8.20;5.90;;;;;;;26.19;52.43;101522.38;1564197;90;21094;-54
2022/06/01 04:21:24;;;;;;;6.65;6.05;;;;;;;26.09;52.78;101522.70;1573030;91;21163;-49
2022/06/01 04:23:51;;;;;;;9.53;5.87;;;;;;;25.94;53.16;101526.45;1559953;90;21119;-49
2022/06/01 04:26:17;;;;;;;6.83;6.03;;;;;;;25.63;54.06;101515.37;1604425;88;21102;-51
2022/06/01 04:28:44;;;;;;;7.55;6.20;;;;;;;25.63;54.06;101515.37;1595792;88;21239;-50
2022/06/01 04:31:11;;;;;;;7.65;6.60;;;;;;;25.55;54.13;101523.07;1573020;89;22176;-51
2022/06/01 04:33:39;;;;;;;9.00;6.15;;;;;;;25.50;54.38;101524.34;1567839;90;21571;-52
2022/06/01 04:36:06;;;;;;;9.08;6.37;;;;;;;25.54;54.34;101520.02;1575714;90;21088;-50
2022/06/01 04:38:32;;;;;;;7.33;6.08;;;;;;;25.53;54.29;101519.63;1576132;90;21198;-53
2022/06/01 04:40:59;;;;;;;7.08;5.95;;;;;;;25.55;54.33;101523.07;1586191;89;21082;-51
2022/06/01 04:43:26;;;;;;;7.65;6.33;;;;;;;25.51;54.45;101522.89;1594611;89;21058;-49
2022/06/01 04:45:53;;;;;;;6.67;6.08;;;;;;;25.47;54.70;101528.07;1574312;89;21134;-53
2022/06/01 04:48:20;;;;;;;7.65;6.83;;;;;;;25.43;54.54;101523.92;1606652;84;21034;-49
2022/06/01 04:50:47;;;;;;;7.40;6.20;;;;;;;25.40;54.63;101525.45;1684213;84;21043;-50
2022/06/01 04:53:15;;;;;;;6.03;5.53;;;;;;;25.39;54.76;101530.40;1671453;84;21556;-51
2022/06/01 04:55:43;;;;;;;7.65;6.58;;;;;;;25.38;54.50;101521.19;1705994;82;21059;-49
2022/06/01 04:58:10;;;;;;;6.70;6.00;;;;;;;25.38;54.50;101521.19;1651422;84;21041;-51
2022/06/01 05:00:37;;;;;;;7.58;5.90;;;;;;;25.34;55.15;101519.23;1665385;84;21126;-49
2022/06/01 05:03:05;;;;;;;6.72;6.08;;;;;;;25.34;55.15;101519.23;1664075;85;21085;-50
2022/06/01 05:05:31;;;;;;;6.60;6.00;;;;;;;25.43;55.25;101537.25;1654161;84;21057;-49
2022/06/01 05:07:58;;;;;;;7.05;6.35;;;;;;;25.55;54.95;101532.40;1694504;84;21069;-51
2022/06/01 05:10:24;;;;;;;7.85;6.25;;;;;;;25.71;54.49;101534.33;1681979;83;21526;-50
2022/06/01 05:12:52;;;;;;;6.33;5.72;;;;;;;26.09;54.00;101531.53;1680429;84;21095;-52
2022/06/01 05:15:20;;;;;;;7.30;5.80;;;;;;;26.09;54.00;101531.53;1652691;85;21574;-51
2022/06/01 05:17:47;;;;;;;6.08;5.60;;;;;;;26.29;53.16;101527.39;1698453;83;21505;-49
2022/06/01 05:20:13;;;;;;;7.10;5.83;;;;;;;26.46;52.73;101526.98;1662740;85;21069;-52
2022/06/01 05:22:41;;;;;;;6.42;5.72;;;;;;;26.61;52.42;101532.47;1675527;84;21041;-49
2022/06/01 05:25:09;;;;;;;6.35;5.75;;;;;;;26.72;52.09;101533.88;1702676;84;21072;-50
2022/06/01 05:27:35;;;;;;;6.30;5.75;;;;;;;26.85;51.63;101529.31;1647003;85;21023;-52
2022/06/01 05:30:05;;;;;;;6.35;5.67;;;;;;;26.94;51.35;101530.39;1657024;84;21473;-50
2022/06/01 05:32:32;;;;;;;6.10;5.50;;;;;;;27.01;51.23;101532.48;1675776;84;21069;-52
2022/06/01 05:34:58;;;;;;;5.92;5.42;;;;;;;27.05;50.95;101531.27;1673731;84;21399;-53
2022/06/01 05:37:25;;;;;;;8.50;5.25;;;;;;;27.05;50.86;101533.94;1670951;84;21068;-51
2022/06/01 05:39:52;;;;;;;6.22;5.65;;;;;;;27.03;50.97;101531.87;1689233;83;21521;-49
2022/06/01 05:42:18;;;;;;;6.37;5.78;;;;;;;27.04;50.95;101537.56;1680350;85;21579;-53
2022/06/01 05:44:46;;;;;;;6.45;5.53;;;;;;;27.04;50.72;101534.03;1680507;85;21564;-54
2022/06/01 05:47:14;;;;;;;9.48;6.30;;;;;;;27.03;50.93;101541.23;1684364;83;21568;-51
2022/06/01 05:49:41;;;;;;;6.60;5.92;;;;;;;27.02;50.93;101534.16;1681471;84;21458;-50
2022/06/01 05:52:09;;;;;;;6.90;6.05;;;;;;;27.00;50.95;101541.45;1697360;83;21066;-51
2022/06/01 05:54:36;;;;;;;7.20;5.80;;;;;;;27.00;50.91;101540.12;1667695;84;21054;-49
2022/06/01 05:57:05;;;;;;;5.45;5.05;;;;;;;27.04;51.04;101537.56;1696178;84;21051;-51
2022/06/01 05:59:33;;;;;;;8.33;5.92;;;;;;;27.15;51.03;101539.41;1658384;85;21588;-52
2022/06/01 06:02:00;;;;;;;6.53;5.47;;;;;;;27.24;50.92;101528.00;1668123;84;21104;-53
2022/06/01 06:04:27;;;;;;;6.10;5.50;;;;;;;27.33;50.91;101528.11;1702415;84;21098;-50
2022/06/01 06:06:53;;;;;;;6.25;5.65;;;;;;;27.45;50.56;101528.16;1686998;84;21060;-53
2022/06/01 06:09:24;;;;;;;8.65;6.62;;;;;;;27.50;50.51;101523.27;1688546;84;21046;-49
2022/06/01 06:11:48;;;;;;;8.63;5.75;;;;;;;27.57;50.53;101521.82;1694205;84;21599;-51
2022/06/01 06:14:15;;;;;;;5.45;4.95;;;;;;;27.72;50.50;101524.09;1694015;83;21030;-51
2022/06/01 06:16:44;;;;;;;5.55;5.05;;;;;;;27.94;50.29;101531.23;1668134;84;21047;-49
2022/06/01 06:19:13;;;;;;;5.95;5.35;;;;;;;28.21;49.57;101528.13;1674131;85;21021;-52
2022/06/01 06:21:39;;;;;;;6.15;5.65;;;;;;;28.44;49.01;101527.06;1707371;83;21613;-49
2022/06/01 06:24:09;;;;;;;8.30;5.28;;;;;;;28.63;48.48;101528.08;1672217;84;21054;-49
2022/06/01 06:26:36;;;;;;;6.20;5.67;;;;;;;28.79;48.02;101521.77;1675656;83;21088;-51
2022/06/01 06:29:07;;;;;;;6.05;5.45;;;;;;;29.02;47.43;101526.98;1661711;85;21058;-52
2022/06/01 06:31:33;;;;;;;6.03;5.53;;;;;;;29.21;46.90;101515.89;1691388;84;21080;-50
2022/06/01 06:34:00;;;;;;;9.55;5.22;;;;;;;29.36;46.50;101511.02;1666645;85;21075;-49
2022/06/01 06:36:26;;;;;;;8.30;5.35;;;;;;;29.44;46.21;101510.70;1666411;84;21104;-48
2022/06/01 06:38:53;;;;;;;5.58;5.08;;;;;;;29.51;46.07;101505.64;1674992;83;21137;-50
2022/06/01 06:41:21;;;;;;;6.00;5.40;;;;;;;29.56;45.77;101511.42;1704711;83;21108;-49
2022/06/01 06:43:48;;;;;;;6.92;5.22;;;;;;;29.50;45.46;101510.15;1699677;83;21491;-50
2022/06/01 06:46:17;;;;;;;7.47;5.22;;;;;;;29.46;45.80;101509.21;1687134;83;21528;-51
2022/06/01 06:48:45;;;;;;;6.83;5.10;;;;;;;29.47;46.00;101510.92;1691097;83;21107;-50
2022/06/01 06:51:12;;;;;;;6.03;5.20;;;;;;;29.47;45.89;101507.73;1650323;85;21054;-49
2022/06/01 06:53:39;;;;;;;5.47;4.97;;;;;;;29.47;45.76;101509.58;1666731;84;21164;-51
2022/06/01 06:56:07;;;;;;;6.85;5.28;;;;;;;29.46;45.90;101509.21;1657341;84;21556;-48
2022/06/01 06:58:37;;;;;;;8.23;5.00;;;;;;;29.53;45.79;101516.56;1699579;83;21529;-49
2022/06/01 07:01:04;;;;;;;7.50;5.08;;;;;;;29.57;45.70;101514.48;1685413;85;21053;-50
2022/06/01 07:03:31;;;;;;;6.37;4.75;;;;;;;29.64;45.57;101514.27;1685459;83;21063;-51
2022/06/01 07:06:11;;;;;;;5.25;4.75;;;;;;;29.76;45.29;101521.23;1687293;84;21066;-48
2022/06/01 07:08:44;;;;;;;6.97;5.05;;;;;;;29.91;45.06;101517.19;1671722;85;21058;-51
2022/06/01 07:11:12;;;;;;;6.53;4.78;;;;;;;30.09;44.82;101522.21;1670874;85;21078;-48
2022/06/01 07:13:38;;;;;;;6.72;4.95;;;;;;;30.23;44.49;101511.57;1678085;83;21030;-52
2022/06/01 07:16:16;;;;;;;5.53;4.85;;;;;;;30.36;44.18;101514.34;1691279;84;21105;-50
2022/06/01 07:18:47;;;;;;;5.33;4.83;;;;;;;30.58;44.16;101523.09;1692484;84;21057;-50
2022/06/01 07:21:17;;;;;;;8.08;5.28;;;;;;;30.88;43.83;101517.55;1661392;85;21059;-51
2022/06/01 07:23:44;;;;;;;6.10;5.20;;;;;;;31.11;42.85;101514.38;1678441;85;21115;-50
2022/06/01 07:26:15;;;;;;;6.62;4.85;;;;;;;31.29;42.39;101514.42;1679826;84;21066;-53
2022/06/01 07:28:41;;;;;;;5.12;4.47;;;;;;;31.42;42.27;101520.35;1688094;83;22443;-52
2022/06/01 07:31:07;;;;;;;6.92;4.53;;;;;;;31.48;42.17;101514.38;1687101;84;21065;-51
2022/06/01 07:33:35;;;;;;;5.90;4.53;;;;;;;31.55;41.83;101514.11;1691861;83;21593;-50
2022/06/01 07:36:05;;;;;;;5.67;4.70;;;;;;;31.56;42.02;101517.16;1689982;84;21560;-50
2022/06/01 07:44:29;;;;;;;5.03;4.35;;;;;;;31.50;41.55;101515.07;1670362;85;21104;-50
2022/06/01 07:46:56;;;;;;;7.97;4.90;;;;;;;31.38;42.12;101513.55;1691323;85;21082;-49
2022/06/01 07:49:25;;;;;;;4.50;4.12;;;;;;;31.31;41.69;101519.16;1655314;85;21072;-51
2022/06/01 07:51:53;;;;;;;7.75;5.30;;;;;;;31.22;41.88;101520.06;1691153;85;21005;-49
2022/06/01 07:54:20;;;;;;;5.55;4.87;;;;;;;31.16;41.80;101519.31;1688180;83;21045;-53
2022/06/01 07:56:47;;;;;;;5.53;4.30;;;;;;;31.13;41.72;101522.28;1674931;85;21070;-49
2022/06/01 07:59:14;;;;;;;4.42;4.10;;;;;;;31.08;41.68;101520.03;1689584;84;22076;-52
2022/06/01 08:01:42;;;;;;;9.70;4.87;;;;;;;31.02;41.91;101517.07;1679434;85;21057;-52
2022/06/01 08:04:09;;;;;;;4.65;4.25;;;;;;;30.98;42.06;101520.56;1652343;85;21045;-51
2022/06/01 08:06:37;;;;;;;5.08;4.60;;;;;;;30.95;42.33;101517.33;1663221;85;21089;-55
2022/06/01 08:09:05;;;;;;;5.95;4.58;;;;;;;30.93;42.28;101517.97;1672314;84;21015;-52
2022/06/01 08:14:18;;;;;;;5.58;4.65;;;;;;;30.91;42.09;101516.78;1660097;84;21026;-52
2022/06/01 08:16:45;;;;;;;7.67;4.92;;;;;;;30.89;41.81;101516.56;1700047;84;21076;-52
2022/06/01 08:19:14;;;;;;;8.15;4.80;;;;;;;30.87;42.05;101515.87;1691303;84;21100;-50
2022/06/01 08:21:40;;;;;;;7.35;4.83;;;;;;;30.87;42.27;101518.55;1690864;85;21088;-52
2022/06/01 08:24:07;;;;;;;7.20;5.00;;;;;;;30.89;42.32;101521.94;1689668;84;21385;-49
2022/06/01 08:26:34;;;;;;;6.87;5.35;;;;;;;30.90;42.34;101522.28;1689792;84;21158;-53
2022/06/01 08:29:02;;;;;;;6.12;4.80;;;;;;;30.93;41.92;101520.66;1689343;83;21064;-51
2022/06/01 08:31:31;;;;;;;4.92;4.42;;;;;;;30.94;41.78;101527.70;1689921;84;21148;-55
2022/06/01 08:33:58;;;;;;;6.28;4.50;;;;;;;30.93;41.75;101523.34;1685882;83;21029;-51
2022/06/01 08:36:25;;;;;;;7.28;5.03;;;;;;;30.92;41.71;101518.95;1660601;85;21051;-51
2022/06/01 08:38:52;;;;;;;7.83;5.78;;;;;;;30.96;41.72;101524.38;1675487;84;21578;-52
2022/06/01 08:41:22;;;;;;;7.83;5.90;;;;;;;30.98;41.36;101519.70;1657944;85;21124;-49
2022/06/01 08:43:54;;;;;;;9.63;5.75;;;;;;;30.98;41.09;101514.33;1676720;84;20994;-50
2022/06/01 08:46:23;;;;;;;7.12;6.30;;;;;;;30.96;41.46;101509.59;1680604;84;21012;-51
2022/06/01 08:48:58;;;;;;;9.83;5.35;;;;;;;30.93;41.63;101515.28;1689311;84;21029;-49
2022/06/01 08:51:27;;;;;;;7.65;5.22;;;;;;;30.93;41.70;101512.59;1680858;85;21044;-53
2022/06/01 08:53:54;;;;;;;5.75;5.20;;;;;;;30.93;41.67;101520.66;1680787;85;21019;-54
2022/06/01 08:56:41;;;;;;;8.25;5.83;;;;;;;30.94;41.73;101518.30;1678489;84;21089;-56
2022/06/01 08:59:40;;;;;;;7.35;5.00;;;;;;;30.98;41.98;101521.05;1694587;84;21538;-53
2022/06/01 09:02:51;;;;;;;9.43;6.25;;;;;;;31.04;41.51;101523.15;1605843;88;21113;-48
2022/06/01 09:05:26;;;;;;;7.60;5.50;;;;;;;31.09;41.02;101527.11;1603117;88;21010;-50
2022/06/01 09:07:59;;;;;;;6.53;5.17;;;;;;;31.16;40.98;101528.72;1620859;88;21593;-52
2022/06/01 09:10:55;;;;;;;8.23;5.45;;;;;;;31.18;40.71;101525.39;1616344;88;21081;-50
2022/06/01 09:13:25;;;;;;;5.65;5.08;;;;;;;31.20;40.26;101523.41;1616314;88;21529;-48
2022/06/01 09:16:03;;;;;;;6.62;5.30;;;;;;;31.22;40.11;101522.75;1568099;88;21118;-52
2022/06/01 09:18:38;;;;;;;6.50;4.78;;;;;;;31.24;40.21;101530.17;1613552;88;21545;-52
2022/06/01 09:23:50;;;;;;;6.72;4.42;;;;;;;31.30;39.41;101526.89;1541448;91;21097;-49
2022/06/01 09:26:28;;;;;;;8.23;5.35;;;;;;;31.32;39.00;101519.52;1534736;92;21558;-51
2022/06/01 09:28:58;;;;;;;5.83;4.28;;;;;;;31.37;38.54;101518.56;1507511;91;21224;-52
2022/06/01 09:31:36;;;;;;;7.72;4.15;;;;;;;31.43;38.20;101516.66;1516151;92;21219;-50
2022/06/01 09:34:26;;;;;;;4.75;3.75;;;;;;;31.47;38.31;101512.66;1505896;93;21145;-52
2022/06/01 09:36:58;;;;;;;7.42;4.50;;;;;;;31.52;38.12;101510.88;1530264;92;21172;-52
2022/06/01 09:39:25;;;;;;;6.97;3.92;;;;;;;31.59;38.02;101511.49;1427634;97;21181;-52
2022/06/01 09:41:52;;;;;;;4.85;3.98;;;;;;;31.66;37.90;101509.88;1455942;95;21135;-50
2022/06/01 09:44:25;;;;;;;7.03;4.55;;;;;;;31.74;37.35;101512.66;1477603;95;21256;-49
2022/06/01 09:46:55;;;;;;;8.03;4.75;;;;;;;31.81;37.00;101517.80;1465824;96;21271;-50
2022/06/01 09:49:30;;;;;;;5.80;4.33;;;;;;;31.88;37.17;101519.38;1440210;97;21158;-53
2022/06/01 09:52:12;;;;;;;5.53;4.10;;;;;;;31.90;36.46;101511.48;1465985;95;21733;-50
2022/06/01 09:54:45;;;;;;;6.33;3.80;;;;;;;31.92;36.44;101512.69;1450722;98;21144;-50
2022/06/01 09:57:26;;;;;;;5.25;4.25;;;;;;;31.95;36.56;101514.61;1458053;96;21585;-52
2022/06/01 10:08:29;;;;;;;6.00;3.90;;;;;;;32.12;36.38;101508.03;1431507;98;21554;-47
2022/06/01 10:11:06;;;;;;;7.60;3.95;;;;;;;32.16;36.27;101506.72;1419128;100;21158;-48
2022/06/01 10:13:39;;;;;;;4.67;4.03;;;;;;;32.18;36.70;101502.02;1378251;102;21645;-51
2022/06/01 10:16:30;;;;;;;6.97;3.70;;;;;;;32.21;37.00;101501.73;1399762;97;21082;-49
2022/06/01 10:18:57;;;;;;;4.55;3.83;;;;;;;32.25;36.84;101499.07;1380321;99;21144;-52
2022/06/01 10:21:28;;;;;;;5.22;4.00;;;;;;;32.30;36.97;101500.78;1383419;101;21175;-52
2022/06/01 10:24:06;;;;;;;4.40;4.00;;;;;;;32.34;36.77;101500.81;1388916;102;21675;-52
2022/06/01 10:26:36;;;;;;;4.53;4.10;;;;;;;32.37;36.73;101495.13;1331725;107;21207;-51
2022/06/01 10:29:15;;;;;;;4.92;3.80;;;;;;;32.39;36.66;101495.33;1331975;107;21175;-50
2022/06/01 10:31:51;;;;;;;7.97;3.72;;;;;;;32.42;36.65;101493.65;1334731;106;21160;-52
2022/06/01 10:34:27;;;;;;;6.25;4.58;;;;;;;32.44;36.91;101492.17;1342671;104;21138;-50
2022/06/01 10:37:23;;;;;;;8.15;4.60;;;;;;;32.45;36.88;101502.78;1360571;104;21113;-50
2022/06/01 10:40:11;;;;;;;4.53;3.80;;;;;;;32.45;37.00;101508.17;1342601;105;21212;-53
2022/06/01 10:45:37;;;;;;;7.78;4.15;;;;;;;32.42;37.32;101505.77;1319509;107;21192;-49
2022/06/01 10:48:10;;;;;;;6.55;3.62;;;;;;;32.42;37.49;101499.56;1344862;105;21218;-52
2022/06/01 10:50:50;;;;;;;5.67;4.03;;;;;;;32.42;37.58;101502.25;1349876;104;21172;-52
2022/06/01 10:53:38;;;;;;;6.58;4.28;;;;;;;32.42;37.49;101502.25;1343121;106;21159;-50
2022/06/01 10:56:05;;;;;;;5.90;4.47;;;;;;;32.41;37.68;101496.51;1286134;109;21307;-53
2022/06/01 10:58:31;;;;;;;4.97;4.35;;;;;;;32.42;37.75;101494.17;1282982;109;21176;-52
2022/06/01 11:01:16;;;;;;;5.03;4.33;;;;;;;32.42;37.86;101488.78;1306836;109;21199;-51
2022/06/01 11:04:13;;;;;;;7.53;4.53;;;;;;;32.43;38.06;101491.81;1306295;107;21686;-53
2022/06/01 11:07:09;;;;;;;7.33;4.42;;;;;;;32.45;38.00;101491.15;1324935;106;21235;-49
2022/06/01 11:10:28;;;;;;;4.12;3.72;;;;;;;32.45;38.22;101491.15;1338614;106;21210;-52
2022/06/01 11:13:35;;;;;;;8.48;4.25;;;;;;;32.45;38.59;101490.66;1347211;105;21157;-51
2022/06/01 11:16:25;;;;;;;5.15;3.95;;;;;;;32.46;38.98;101490.20;1376756;100;21098;-52
2022/06/01 11:19:12;;;;;;;6.87;3.95;;;;;;;32.46;39.00;101490.20;1416843;99;21132;-51
2022/06/01 11:22:15;;;;;;;5.85;4.22;;;;;;;32.48;39.12;101489.53;1428784;98;21204;-51
2022/06/01 11:25:08;;;;;;;6.28;3.98;;;;;;;32.48;38.87;101480.11;1440463;98;21174;-50
2022/06/01 11:28:03;;;;;;;5.90;4.10;;;;;;;32.52;38.95;101480.14;1440242;97;21153;-49
2022/06/01 11:31:17;;;;;;;6.05;4.78;;;;;;;32.56;38.65;101485.55;1508280;90;21118;-50
2022/06/01 11:33:59;;;;;;;4.37;3.50;;;;;;;32.58;38.63;101480.85;1571957;90;21096;-52
2022/06/01 11:37:11;;;;;;;6.30;3.83;;;;;;;32.60;38.65;101479.67;1577840;90;21138;-50
2022/06/01 11:39:59;;;;;;;4.42;4.03;;;;;;;32.63;38.79;101471.77;1570231;90;21139;-51
2022/06/01 11:42:55;;;;;;;6.90;4.58;;;;;;;32.66;38.29;101475.52;1497448;95;21092;-51
2022/06/01 11:45:27;;;;;;;6.17;4.08;;;;;;;32.65;38.38;101474.66;1469529;96;21210;-52
2022/06/01 11:47:55;;;;;;;4.72;3.95;;;;;;;32.66;38.54;101475.02;1453893;96;21583;-53
2022/06/01 11:51:07;;;;;;;5.42;4.05;;;;;;;32.66;39.01;101475.52;1452065;98;21104;-49
2022/06/01 11:53:44;;;;;;;5.80;4.20;;;;;;;32.65;39.23;101473.81;1433526;97;21160;-50
2022/06/01 11:56:27;;;;;;;7.25;4.00;;;;;;;32.64;38.72;101466.75;1442585;97;21231;-55
2022/06/01 11:59:34;;;;;;;4.78;4.30;;;;;;;32.66;38.65;101468.78;1425752;96;21175;-51
2022/06/01 12:02:40;;;;;;;7.72;4.37;;;;;;;32.66;38.75;101464.24;1444279;98;21107;-51
2022/06/01 12:04:59;;;;;;;5.20;4.05;;;;;;;32.68;39.08;101463.58;1453590;96;21642;-49
2022/06/01 12:07:36;;;;;;;4.30;3.90;;;;;;;32.67;39.41;101455.63;1391798;100;21691;-50
2022/06/01 12:10:20;;;;;;;6.20;4.30;;;;;;;32.68;39.69;101465.42;1390105;101;21120;-53
2022/06/01 12:13:04;;;;;;;5.45;4.25;;;;;;;32.66;39.63;101456.66;1410059;101;21107;-50
2022/06/01 12:15:40;;;;;;;8.13;4.72;;;;;;;32.65;39.42;101458.98;1392880;101;21594;-51
2022/06/01 12:18:19;;;;;;;9.58;4.62;;;;;;;32.64;39.56;101461.36;1373368;101;21112;-51
2022/06/01 12:20:54;;;;;;;7.35;4.20;;;;;;;32.63;39.76;101449.72;1384118;102;21641;-50